Dimitris Y II — 3EVJ2 — position and weather

sailwx.info

Track history (hours):
 
Tides and Currents Weather Stations Pressure Air Temp Water Temp Dewpoint Dewpoint Depression Visibility Wind Speed Wind Dir Waves Ship Positions

Dimitris Y II

Last reported at 2018-Jul-08 20:07 UTC. Time now 2018-Jul-17 04:09 UTC.
Position N 46°23' E 030°55'.
Warning: this ship's position is 8 days out of date.

Length 90 m; draft 6.6 m.

Type: Cargo ship. MMSI: 351750000.

Date/timePositionNaut miles runAvg speedWind from/ knotsBaromVisibWave heightAir tempDewpointWater temp
2018-Jul-08 20:07N 46°23' E 030°55'1 9.4
2018-Jul-08 20:00N 46°24' E 030°55'5 9.5
2018-Jul-08 19:30N 46°29' E 030°55'40 8.0
2018-Jul-08 14:32N 46°37' E 031°52'1 8.3
2018-Jul-08 14:28N 46°37' E 031°53'5 7.9
2018-Jul-08 13:53N 46°41' E 031°56'3 7.7
2018-Jul-08 13:30N 46°44' E 031°55'2 4.6
2018-Jul-08 13:00N 46°46' E 031°57'0 0.3
2018-Jul-08 12:30N 46°46' E 031°57'0 0.0
2018-Jul-08 12:00N 46°46' E 031°57'0 0.0
2018-Jul-08 11:27N 46°46' E 031°57'0 0.0
2018-Jul-08 11:00N 46°46' E 031°57'0 0.0
2018-Jul-08 10:30N 46°46' E 031°57'0 0.0
2018-Jul-08 10:00N 46°46' E 031°57'0 0.0
2018-Jul-08 09:30N 46°46' E 031°57'0 0.0
2018-Jul-08 08:57N 46°46' E 031°57'0 0.0
2018-Jul-08 08:27N 46°46' E 031°57'0 0.0
2018-Jul-08 08:00N 46°46' E 031°57'0 0.0
2018-Jul-08 07:30N 46°46' E 031°57'0 0.0
2018-Jul-08 07:00N 46°46' E 031°57'0 0.0
2018-Jul-08 06:27N 46°46' E 031°57'0 0.0
2018-Jul-08 05:57N 46°46' E 031°57'0 0.0
2018-Jul-08 05:30N 46°46' E 031°57'0 0.0
2018-Jul-08 05:00N 46°46' E 031°57'0 0.0
2018-Jul-08 04:27N 46°46' E 031°57'0 0.0
2018-Jul-08 03:57N 46°46' E 031°57'0 0.0
2018-Jul-08 03:30N 46°46' E 031°57'0 0.0
2018-Jul-08 03:00N 46°46' E 031°57'0 0.0
2018-Jul-08 02:30N 46°46' E 031°57'0 0.0
2018-Jul-08 02:00N 46°46' E 031°57'0 0.0
2018-Jul-08 01:27N 46°46' E 031°57'0 0.0
2018-Jul-08 00:51N 46°46' E 031°57'0 0.0
2018-Jul-08 00:30N 46°46' E 031°57'0 0.0
2018-Jul-08 00:00N 46°46' E 031°57'0 0.0
2018-Jul-07 23:30N 46°46' E 031°57'0 0.0
2018-Jul-07 22:57N 46°46' E 031°57'0 0.0
2018-Jul-07 22:30N 46°46' E 031°57'0 0.0
2018-Jul-07 22:00N 46°46' E 031°57'0 0.0
2018-Jul-07 21:30N 46°46' E 031°57'0 0.0
2018-Jul-07 21:00N 46°46' E 031°57'0 0.0
2018-Jul-07 20:30N 46°46' E 031°57'0 0.0
2018-Jul-07 19:57N 46°46' E 031°57'0 0.0
2018-Jul-07 19:27N 46°46' E 031°57'0 0.0
2018-Jul-07 18:54N 46°46' E 031°57'0 0.0
2018-Jul-07 18:27N 46°46' E 031°57'0 0.0
2018-Jul-07 17:54N 46°46' E 031°57'0 0.0
2018-Jul-07 17:30N 46°46' E 031°57'0 0.0
2018-Jul-07 16:57N 46°46' E 031°57'0 0.0
2018-Jul-07 16:30N 46°46' E 031°57'0 0.0
2018-Jul-07 16:00N 46°46' E 031°57'0 0.0
2018-Jul-07 15:30N 46°46' E 031°57'0 0.0
2018-Jul-07 15:00N 46°46' E 031°57'0 0.0
2018-Jul-07 14:30N 46°46' E 031°57'0 0.0
2018-Jul-07 13:57N 46°46' E 031°57'0 0.0
2018-Jul-07 13:30N 46°46' E 031°57'0 0.0
2018-Jul-07 13:00N 46°46' E 031°57'0 0.0
2018-Jul-07 12:30N 46°46' E 031°57'0 0.0
2018-Jul-07 12:00N 46°46' E 031°57'0 0.0
2018-Jul-07 11:27N 46°46' E 031°57'0 0.0
2018-Jul-07 11:00N 46°46' E 031°57'0 0.0
2018-Jul-07 10:27N 46°46' E 031°57'0 0.0
2018-Jul-07 09:57N 46°46' E 031°57'0 0.0
2018-Jul-07 09:27N 46°46' E 031°57'0 0.0
2018-Jul-07 09:00N 46°46' E 031°57'0 0.0
2018-Jul-07 08:30N 46°46' E 031°57'0 0.0
2018-Jul-07 07:57N 46°46' E 031°57'0 0.0
2018-Jul-07 07:27N 46°46' E 031°57'0 0.0
2018-Jul-07 06:57N 46°46' E 031°57'0 0.0
2018-Jul-07 06:27N 46°46' E 031°57'0 0.0
2018-Jul-07 06:00N 46°46' E 031°57'0 0.0
2018-Jul-07 05:30N 46°46' E 031°57'0 0.0
2018-Jul-07 05:00N 46°46' E 031°57'0 0.0
2018-Jul-07 04:30N 46°46' E 031°57'0 0.0
2018-Jul-07 04:00N 46°46' E 031°57'0 0.0
2018-Jul-07 03:30N 46°46' E 031°57'0 0.0
2018-Jul-07 02:57N 46°46' E 031°57'0 0.0
2018-Jul-07 02:27N 46°46' E 031°57'0 0.0
2018-Jul-07 02:00N 46°46' E 031°57'0 0.0
2018-Jul-07 01:30N 46°46' E 031°57'0 0.0
2018-Jul-07 00:57N 46°46' E 031°57'0 0.0
2018-Jul-07 00:27N 46°46' E 031°57'0 0.0
2018-Jul-06 23:57N 46°46' E 031°57'0 0.0
2018-Jul-06 23:21N 46°46' E 031°57'0 0.0
2018-Jul-06 22:57N 46°46' E 031°57'0 0.0
2018-Jul-06 22:24N 46°46' E 031°57'0 0.0
2018-Jul-06 21:51N 46°46' E 031°57'0 0.0
2018-Jul-06 21:27N 46°46' E 031°57'0 0.0
2018-Jul-06 21:00N 46°46' E 031°57'0 0.0
2018-Jul-06 20:15N 46°46' E 031°57'0 0.0
2018-Jul-06 19:57N 46°46' E 031°57'0 0.0
2018-Jul-06 19:27N 46°46' E 031°57'0 0.0
2018-Jul-06 18:57N 46°46' E 031°57'0 0.0
2018-Jul-06 18:30N 46°46' E 031°57'0 0.0
2018-Jul-06 17:57N 46°46' E 031°57'0 0.0
2018-Jul-06 17:30N 46°46' E 031°57'0 0.0
2018-Jul-06 17:00N 46°46' E 031°57'0 0.0
2018-Jul-06 16:30N 46°46' E 031°57'0 0.0
2018-Jul-06 16:00N 46°46' E 031°57'0 0.0
2018-Jul-06 15:30N 46°46' E 031°57'0 0.0
2018-Jul-06 15:00N 46°46' E 031°57'0 0.0
2018-Jul-06 14:30N 46°46' E 031°57'0 0.0
2018-Jul-06 14:00N 46°46' E 031°57'0 0.0
2018-Jul-06 13:30N 46°46' E 031°57'0 0.0
2018-Jul-06 13:00N 46°46' E 031°57'0 0.0
2018-Jul-06 12:30N 46°46' E 031°57'0 0.0
2018-Jul-06 11:57N 46°46' E 031°57'0 0.0
2018-Jul-06 11:27N 46°46' E 031°57'0 0.0
2018-Jul-06 11:00N 46°46' E 031°57'0 0.0
2018-Jul-06 10:30N 46°46' E 031°57'0 0.0
2018-Jul-06 10:00N 46°46' E 031°57'0 0.0
2018-Jul-06 09:30N 46°46' E 031°57'0 0.0
2018-Jul-06 09:00N 46°46' E 031°57'0 0.0
2018-Jul-06 08:30N 46°46' E 031°57'0 0.0
2018-Jul-06 07:57N 46°46' E 031°57'0 0.0
2018-Jul-06 07:30N 46°46' E 031°57'0 0.0
2018-Jul-06 07:00N 46°46' E 031°57'0 0.0
2018-Jul-06 06:30N 46°46' E 031°57'0 0.0
2018-Jul-06 06:00N 46°46' E 031°57'0 0.0
2018-Jul-06 05:30N 46°46' E 031°57'0 0.0
2018-Jul-06 05:00N 46°46' E 031°57'0 0.0
2018-Jul-06 04:30N 46°46' E 031°57'0 0.0
2018-Jul-06 04:00N 46°46' E 031°57'0 0.0
2018-Jul-06 03:30N 46°46' E 031°57'0 0.0
2018-Jul-06 03:00N 46°46' E 031°57'0 0.0
2018-Jul-06 02:30N 46°46' E 031°57'0 0.0
2018-Jul-06 02:00N 46°46' E 031°57'0 0.0
2018-Jul-06 01:27N 46°46' E 031°57'0 0.0
2018-Jul-06 01:00N 46°46' E 031°57'0 0.0
2018-Jul-06 00:27N 46°46' E 031°57'0 0.0
2018-Jul-05 23:59N 46°46' E 031°57'0 0.0
2018-Jul-05 23:29N 46°46' E 031°57'0 0.0
2018-Jul-05 22:59N 46°46' E 031°57'0 0.0
2018-Jul-05 22:29N 46°46' E 031°57'0 0.0
2018-Jul-05 21:59N 46°46' E 031°57'0 0.0
2018-Jul-05 21:29N 46°46' E 031°57'0 0.0
2018-Jul-05 20:59N 46°46' E 031°57'0 0.0
2018-Jul-05 20:29N 46°46' E 031°57'0 0.0
2018-Jul-05 19:59N 46°46' E 031°57'0 0.0
2018-Jul-05 19:30N 46°46' E 031°57'1 2.8
2018-Jul-05 19:00N 46°45' E 031°56'3 6.9
2018-Jul-05 18:30N 46°42' E 031°56'5 9.8
2018-Jul-05 18:00N 46°37' E 031°53'1510.4
2018-Jul-05 16:33N 46°35' E 031°31'010.5
2018-Jul-05 16:30N 46°35' E 031°31'5 9.7
2018-Jul-05 15:59N 46°35' E 031°23'511.0
2018-Jul-05 15:30N 46°35' E 031°16'511.2
2018-Jul-05 15:00N 46°35' E 031°08'8 8.2
2018-Jul-05 14:00N 46°32' E 030°57'5 9.8
2018-Jul-05 13:30N 46°27' E 030°57'510.5
2018-Jul-05 13:00N 46°21' E 030°57'510.7
2018-Jul-05 12:30N 46°16' E 030°59'610.7
2018-Jul-05 11:58N 46°12' E 031°04'6510.4
2018-Jul-05 05:44N 45°07' E 031°03'410.6
2018-Jul-05 05:23N 45°03' E 031°02'410.5
2018-Jul-05 05:00N 44°60' E 030°59'610.7
2018-Jul-05 04:29N 44°57' E 030°52'610.7
2018-Jul-05 03:57N 44°54' E 030°46'510.8
2018-Jul-05 03:30N 44°51' E 030°40'510.7
2018-Jul-05 03:00N 44°48' E 030°34'810.6
2018-Jul-05 02:12N 44°43' E 030°24'210.9
2018-Jul-05 02:00N 44°42' E 030°21'611.1
2018-Jul-05 01:30N 44°39' E 030°15'610.9
2018-Jul-05 00:57N 44°36' E 030°07'810.8
2018-Jul-05 00:12N 44°31' E 029°58'411.0
2018-Jul-04 23:51N 44°29' E 029°54'1611.2
2018-Jul-04 22:28N 44°20' E 029°36'511.3
2018-Jul-04 22:00N 44°17' E 029°29'611.2
2018-Jul-04 21:30N 44°14' E 029°23'511.1
2018-Jul-04 21:00N 44°11' E 029°17'611.0
2018-Jul-04 20:29N 44°08' E 029°10'510.8
2018-Jul-04 20:00N 44°05' E 029°04'510.8
2018-Jul-04 19:30N 44°02' E 028°58'510.8
2018-Jul-04 19:00N 43°59' E 028°52'4 8.5
2018-Jul-04 18:30N 44°01' E 028°47'5 9.8
2018-Jul-04 18:00N 44°05' E 028°43'3 5.4
2018-Jul-04 17:30N 44°07' E 028°41'3 4.8
2018-Jul-04 16:58N 44°09' E 028°39'0 0.0
2018-Jul-04 16:25N 44°09' E 028°39'0 0.0
2018-Jul-04 15:58N 44°09' E 028°39'0 0.0
2018-Jul-04 15:28N 44°09' E 028°39'0 0.0
2018-Jul-04 14:58N 44°09' E 028°39'0 0.0
2018-Jul-04 14:28N 44°09' E 028°39'0 0.0
2018-Jul-04 13:58N 44°09' E 028°39'0 0.0
2018-Jul-04 13:28N 44°09' E 028°39'0 0.0
2018-Jul-04 12:58N 44°09' E 028°39'0 0.0
2018-Jul-04 12:28N 44°09' E 028°39'0 0.0
2018-Jul-04 11:55N 44°09' E 028°39'0 0.0
2018-Jul-04 11:25N 44°09' E 028°39'0 0.0
2018-Jul-04 10:58N 44°09' E 028°39'0 0.0
2018-Jul-04 10:25N 44°09' E 028°39'0 0.0
2018-Jul-04 09:55N 44°09' E 028°39'0 0.0
2018-Jul-04 09:25N 44°09' E 028°39'0 0.0
2018-Jul-04 08:58N 44°09' E 028°39'0 0.0
2018-Jul-04 08:28N 44°09' E 028°39'0 0.0
2018-Jul-04 07:58N 44°09' E 028°39'0 0.0
2018-Jul-04 07:28N 44°09' E 028°39'0 0.0
2018-Jul-04 06:58N 44°09' E 028°39'0 0.0
2018-Jul-04 06:28N 44°09' E 028°39'0 0.0
2018-Jul-04 05:58N 44°09' E 028°39'0 0.0
2018-Jul-04 05:28N 44°09' E 028°39'0 0.0
2018-Jul-04 04:58N 44°09' E 028°39'0 0.0
2018-Jul-04 04:28N 44°09' E 028°39'0 0.0
2018-Jul-04 03:58N 44°09' E 028°39'0 0.0
2018-Jul-04 03:28N 44°09' E 028°39'0 0.0
2018-Jul-04 02:58N 44°09' E 028°39'0 0.0
2018-Jul-04 02:25N 44°09' E 028°39'0 0.0
2018-Jul-04 01:58N 44°09' E 028°39'0 0.0
2018-Jul-04 01:25N 44°09' E 028°39'0 0.0
2018-Jul-04 00:58N 44°09' E 028°39'0 0.0
2018-Jul-04 00:28N 44°09' E 028°39'0 0.0
2018-Jul-03 23:58N 44°09' E 028°39'0 0.0
2018-Jul-03 23:25N 44°09' E 028°39'0 0.0
2018-Jul-03 22:58N 44°09' E 028°39'0 0.0
2018-Jul-03 22:28N 44°09' E 028°39'0 0.0
2018-Jul-03 21:58N 44°09' E 028°39'0 0.0
2018-Jul-03 21:28N 44°09' E 028°39'0 0.0
2018-Jul-03 20:55N 44°09' E 028°39'0 0.0
2018-Jul-03 20:28N 44°09' E 028°39'0 0.0
2018-Jul-03 20:01N 44°09' E 028°39'0 0.0
2018-Jul-03 19:28N 44°09' E 028°39'0 0.0
2018-Jul-03 18:58N 44°09' E 028°39'0 0.0
2018-Jul-03 18:31N 44°09' E 028°39'0 0.0
2018-Jul-03 17:52N 44°09' E 028°39'0 0.0
2018-Jul-03 17:28N 44°09' E 028°39'0 0.0
2018-Jul-03 16:58N 44°09' E 028°39'0 0.0
2018-Jul-03 16:27N 44°09' E 028°39'0 0.0
2018-Jul-03 15:57N 44°09' E 028°39'0 0.0
2018-Jul-03 15:28N 44°09' E 028°39'0 0.0
2018-Jul-03 14:58N 44°09' E 028°39'0 0.0
2018-Jul-03 14:22N 44°09' E 028°39'0 0.0
2018-Jul-03 13:58N 44°09' E 028°39'0 0.0
2018-Jul-03 13:25N 44°09' E 028°39'0 0.0
2018-Jul-03 12:58N 44°09' E 028°39'0 0.0
2018-Jul-03 12:30N 44°09' E 028°39'1 1.9
2018-Jul-03 12:00N 44°09' E 028°40'3 6.6
2018-Jul-03 11:30N 44°06' E 028°42'2 4.0
2018-Jul-03 11:00N 44°05' E 028°44'1 1.2
2018-Jul-03 10:30N 44°04' E 028°45'2 3.7
2018-Jul-03 10:00N 44°03' E 028°46'2 4.9
2018-Jul-03 09:30N 44°01' E 028°48'3 5.6
2018-Jul-03 09:01N 43°59' E 028°51'4 7.4
2018-Jul-03 08:30N 43°55' E 028°51'4 8.3
2018-Jul-03 08:00N 43°51' E 028°51'5 9.5
2018-Jul-03 07:30N 43°46' E 028°51'510.2
2018-Jul-03 07:00N 43°41' E 028°52'38 9.9
2018-Jul-03 03:11N 43°04' E 028°59'2 9.0
2018-Jul-03 02:56N 43°01' E 028°59'9 9.0
2018-Jul-03 01:57N 42°53' E 029°02'7 9.4
2018-Jul-03 01:10N 42°46' E 029°03'2 9.3
2018-Jul-03 00:55N 42°43' E 029°04'6 9.5
2018-Jul-03 00:17N 42°37' E 029°05'3 9.5
2018-Jul-02 23:59N 42°35' E 029°06'10 9.5
2018-Jul-02 22:54N 42°24' E 029°07'4 9.9
2018-Jul-02 22:29N 42°20' E 029°08'  
2018-Jun-30 16:35N 39°46' E 024°16'110.0
2018-Jun-30 16:30N 39°46' E 024°16'  
Track history (hours):
 
Tides and Currents Weather Stations Pressure Air Temp Water Temp Dewpoint Dewpoint Depression Visibility Wind Speed Wind Dir Waves Ship Positions

Dimitris Y II

Last reported at 2018-Jul-08 20:07 UTC. Time now 2018-Jul-17 04:09 UTC.
Position N 46°23' E 030°55'.
Warning: this ship's position is 8 days out of date.

Length 90 m; draft 6.6 m.

Type: Cargo ship. MMSI: 351750000.

Date/timePositionNaut miles runAvg speedWind from/ knotsBaromVisibWave heightAir tempDewpointWater temp
2018-Jul-08 20:07N 46°23' E 030°55'1 9.4
2018-Jul-08 20:00N 46°24' E 030°55'5 9.5
2018-Jul-08 19:30N 46°29' E 030°55'40 8.0
2018-Jul-08 14:32N 46°37' E 031°52'1 8.3
2018-Jul-08 14:28N 46°37' E 031°53'5 7.9
2018-Jul-08 13:53N 46°41' E 031°56'3 7.7
2018-Jul-08 13:30N 46°44' E 031°55'2 4.6
2018-Jul-08 13:00N 46°46' E 031°57'0 0.3
2018-Jul-08 12:30N 46°46' E 031°57'0 0.0
2018-Jul-08 12:00N 46°46' E 031°57'0 0.0
2018-Jul-08 11:27N 46°46' E 031°57'0 0.0
2018-Jul-08 11:00N 46°46' E 031°57'0 0.0
2018-Jul-08 10:30N 46°46' E 031°57'0 0.0
2018-Jul-08 10:00N 46°46' E 031°57'0 0.0
2018-Jul-08 09:30N 46°46' E 031°57'0 0.0
2018-Jul-08 08:57N 46°46' E 031°57'0 0.0
2018-Jul-08 08:27N 46°46' E 031°57'0 0.0
2018-Jul-08 08:00N 46°46' E 031°57'0 0.0
2018-Jul-08 07:30N 46°46' E 031°57'0 0.0
2018-Jul-08 07:00N 46°46' E 031°57'0 0.0
2018-Jul-08 06:27N 46°46' E 031°57'0 0.0
2018-Jul-08 05:57N 46°46' E 031°57'0 0.0
2018-Jul-08 05:30N 46°46' E 031°57'0 0.0
2018-Jul-08 05:00N 46°46' E 031°57'0 0.0
2018-Jul-08 04:27N 46°46' E 031°57'0 0.0
2018-Jul-08 03:57N 46°46' E 031°57'0 0.0
2018-Jul-08 03:30N 46°46' E 031°57'0 0.0
2018-Jul-08 03:00N 46°46' E 031°57'0 0.0
2018-Jul-08 02:30N 46°46' E 031°57'0 0.0
2018-Jul-08 02:00N 46°46' E 031°57'0 0.0
2018-Jul-08 01:27N 46°46' E 031°57'0 0.0
2018-Jul-08 00:51N 46°46' E 031°57'0 0.0
2018-Jul-08 00:30N 46°46' E 031°57'0 0.0
2018-Jul-08 00:00N 46°46' E 031°57'0 0.0
2018-Jul-07 23:30N 46°46' E 031°57'0 0.0
2018-Jul-07 22:57N 46°46' E 031°57'0 0.0
2018-Jul-07 22:30N 46°46' E 031°57'0 0.0
2018-Jul-07 22:00N 46°46' E 031°57'0 0.0
2018-Jul-07 21:30N 46°46' E 031°57'0 0.0
2018-Jul-07 21:00N 46°46' E 031°57'0 0.0
2018-Jul-07 20:30N 46°46' E 031°57'0 0.0
2018-Jul-07 19:57N 46°46' E 031°57'0 0.0
2018-Jul-07 19:27N 46°46' E 031°57'0 0.0
2018-Jul-07 18:54N 46°46' E 031°57'0 0.0
2018-Jul-07 18:27N 46°46' E 031°57'0 0.0
2018-Jul-07 17:54N 46°46' E 031°57'0 0.0
2018-Jul-07 17:30N 46°46' E 031°57'0 0.0
2018-Jul-07 16:57N 46°46' E 031°57'0 0.0
2018-Jul-07 16:30N 46°46' E 031°57'0 0.0
2018-Jul-07 16:00N 46°46' E 031°57'0 0.0
2018-Jul-07 15:30N 46°46' E 031°57'0 0.0
2018-Jul-07 15:00N 46°46' E 031°57'0 0.0
2018-Jul-07 14:30N 46°46' E 031°57'0 0.0
2018-Jul-07 13:57N 46°46' E 031°57'0 0.0
2018-Jul-07 13:30N 46°46' E 031°57'0 0.0
2018-Jul-07 13:00N 46°46' E 031°57'0 0.0
2018-Jul-07 12:30N 46°46' E 031°57'0 0.0
2018-Jul-07 12:00N 46°46' E 031°57'0 0.0
2018-Jul-07 11:27N 46°46' E 031°57'0 0.0
2018-Jul-07 11:00N 46°46' E 031°57'0 0.0
2018-Jul-07 10:27N 46°46' E 031°57'0 0.0
2018-Jul-07 09:57N 46°46' E 031°57'0 0.0
2018-Jul-07 09:27N 46°46' E 031°57'0 0.0
2018-Jul-07 09:00N 46°46' E 031°57'0 0.0
2018-Jul-07 08:30N 46°46' E 031°57'0 0.0
2018-Jul-07 07:57N 46°46' E 031°57'0 0.0
2018-Jul-07 07:27N 46°46' E 031°57'0 0.0
2018-Jul-07 06:57N 46°46' E 031°57'0 0.0
2018-Jul-07 06:27N 46°46' E 031°57'0 0.0
2018-Jul-07 06:00N 46°46' E 031°57'0 0.0
2018-Jul-07 05:30N 46°46' E 031°57'0 0.0
2018-Jul-07 05:00N 46°46' E 031°57'0 0.0
2018-Jul-07 04:30N 46°46' E 031°57'0 0.0
2018-Jul-07 04:00N 46°46' E 031°57'0 0.0
2018-Jul-07 03:30N 46°46' E 031°57'0 0.0
2018-Jul-07 02:57N 46°46' E 031°57'0 0.0
2018-Jul-07 02:27N 46°46' E 031°57'0 0.0
2018-Jul-07 02:00N 46°46' E 031°57'0 0.0
2018-Jul-07 01:30N 46°46' E 031°57'0 0.0
2018-Jul-07 00:57N 46°46' E 031°57'0 0.0
2018-Jul-07 00:27N 46°46' E 031°57'0 0.0
2018-Jul-06 23:57N 46°46' E 031°57'0 0.0
2018-Jul-06 23:21N 46°46' E 031°57'0 0.0
2018-Jul-06 22:57N 46°46' E 031°57'0 0.0
2018-Jul-06 22:24N 46°46' E 031°57'0 0.0
2018-Jul-06 21:51N 46°46' E 031°57'0 0.0
2018-Jul-06 21:27N 46°46' E 031°57'0 0.0
2018-Jul-06 21:00N 46°46' E 031°57'0 0.0
2018-Jul-06 20:15N 46°46' E 031°57'0 0.0
2018-Jul-06 19:57N 46°46' E 031°57'0 0.0
2018-Jul-06 19:27N 46°46' E 031°57'0 0.0
2018-Jul-06 18:57N 46°46' E 031°57'0 0.0
2018-Jul-06 18:30N 46°46' E 031°57'0 0.0
2018-Jul-06 17:57N 46°46' E 031°57'0 0.0
2018-Jul-06 17:30N 46°46' E 031°57'0 0.0
2018-Jul-06 17:00N 46°46' E 031°57'0 0.0
2018-Jul-06 16:30N 46°46' E 031°57'0 0.0
2018-Jul-06 16:00N 46°46' E 031°57'0 0.0
2018-Jul-06 15:30N 46°46' E 031°57'0 0.0
2018-Jul-06 15:00N 46°46' E 031°57'0 0.0
2018-Jul-06 14:30N 46°46' E 031°57'0 0.0
2018-Jul-06 14:00N 46°46' E 031°57'0 0.0
2018-Jul-06 13:30N 46°46' E 031°57'0 0.0
2018-Jul-06 13:00N 46°46' E 031°57'0 0.0
2018-Jul-06 12:30N 46°46' E 031°57'0 0.0
2018-Jul-06 11:57N 46°46' E 031°57'0 0.0
2018-Jul-06 11:27N 46°46' E 031°57'0 0.0
2018-Jul-06 11:00N 46°46' E 031°57'0 0.0
2018-Jul-06 10:30N 46°46' E 031°57'0 0.0
2018-Jul-06 10:00N 46°46' E 031°57'0 0.0
2018-Jul-06 09:30N 46°46' E 031°57'0 0.0
2018-Jul-06 09:00N 46°46' E 031°57'0 0.0
2018-Jul-06 08:30N 46°46' E 031°57'0 0.0
2018-Jul-06 07:57N 46°46' E 031°57'0 0.0
2018-Jul-06 07:30N 46°46' E 031°57'0 0.0
2018-Jul-06 07:00N 46°46' E 031°57'0 0.0
2018-Jul-06 06:30N 46°46' E 031°57'0 0.0
2018-Jul-06 06:00N 46°46' E 031°57'0 0.0
2018-Jul-06 05:30N 46°46' E 031°57'0 0.0
2018-Jul-06 05:00N 46°46' E 031°57'0 0.0
2018-Jul-06 04:30N 46°46' E 031°57'0 0.0
2018-Jul-06 04:00N 46°46' E 031°57'0 0.0
2018-Jul-06 03:30N 46°46' E 031°57'0 0.0
2018-Jul-06 03:00N 46°46' E 031°57'0 0.0
2018-Jul-06 02:30N 46°46' E 031°57'0 0.0
2018-Jul-06 02:00N 46°46' E 031°57'0 0.0
2018-Jul-06 01:27N 46°46' E 031°57'0 0.0
2018-Jul-06 01:00N 46°46' E 031°57'0 0.0
2018-Jul-06 00:27N 46°46' E 031°57'0 0.0
2018-Jul-05 23:59N 46°46' E 031°57'0 0.0
2018-Jul-05 23:29N 46°46' E 031°57'0 0.0
2018-Jul-05 22:59N 46°46' E 031°57'0 0.0
2018-Jul-05 22:29N 46°46' E 031°57'0 0.0
2018-Jul-05 21:59N 46°46' E 031°57'0 0.0
2018-Jul-05 21:29N 46°46' E 031°57'0 0.0
2018-Jul-05 20:59N 46°46' E 031°57'0 0.0
2018-Jul-05 20:29N 46°46' E 031°57'0 0.0
2018-Jul-05 19:59N 46°46' E 031°57'0 0.0
2018-Jul-05 19:30N 46°46' E 031°57'1 2.8
2018-Jul-05 19:00N 46°45' E 031°56'3 6.9
2018-Jul-05 18:30N 46°42' E 031°56'5 9.8
2018-Jul-05 18:00N 46°37' E 031°53'1510.4
2018-Jul-05 16:33N 46°35' E 031°31'010.5
2018-Jul-05 16:30N 46°35' E 031°31'5 9.7
2018-Jul-05 15:59N 46°35' E 031°23'511.0
2018-Jul-05 15:30N 46°35' E 031°16'511.2
2018-Jul-05 15:00N 46°35' E 031°08'8 8.2
2018-Jul-05 14:00N 46°32' E 030°57'5 9.8
2018-Jul-05 13:30N 46°27' E 030°57'510.5
2018-Jul-05 13:00N 46°21' E 030°57'510.7
2018-Jul-05 12:30N 46°16' E 030°59'610.7
2018-Jul-05 11:58N 46°12' E 031°04'6510.4
2018-Jul-05 05:44N 45°07' E 031°03'410.6
2018-Jul-05 05:23N 45°03' E 031°02'410.5
2018-Jul-05 05:00N 44°60' E 030°59'610.7
2018-Jul-05 04:29N 44°57' E 030°52'610.7
2018-Jul-05 03:57N 44°54' E 030°46'510.8
2018-Jul-05 03:30N 44°51' E 030°40'510.7
2018-Jul-05 03:00N 44°48' E 030°34'810.6
2018-Jul-05 02:12N 44°43' E 030°24'210.9
2018-Jul-05 02:00N 44°42' E 030°21'611.1
2018-Jul-05 01:30N 44°39' E 030°15'610.9
2018-Jul-05 00:57N 44°36' E 030°07'810.8
2018-Jul-05 00:12N 44°31' E 029°58'411.0
2018-Jul-04 23:51N 44°29' E 029°54'1611.2
2018-Jul-04 22:28N 44°20' E 029°36'511.3
2018-Jul-04 22:00N 44°17' E 029°29'611.2
2018-Jul-04 21:30N 44°14' E 029°23'511.1
2018-Jul-04 21:00N 44°11' E 029°17'611.0
2018-Jul-04 20:29N 44°08' E 029°10'510.8
2018-Jul-04 20:00N 44°05' E 029°04'510.8
2018-Jul-04 19:30N 44°02' E 028°58'510.8
2018-Jul-04 19:00N 43°59' E 028°52'4 8.5
2018-Jul-04 18:30N 44°01' E 028°47'5 9.8
2018-Jul-04 18:00N 44°05' E 028°43'3 5.4
2018-Jul-04 17:30N 44°07' E 028°41'3 4.8
2018-Jul-04 16:58N 44°09' E 028°39'0 0.0
2018-Jul-04 16:25N 44°09' E 028°39'0 0.0
2018-Jul-04 15:58N 44°09' E 028°39'0 0.0
2018-Jul-04 15:28N 44°09' E 028°39'0 0.0
2018-Jul-04 14:58N 44°09' E 028°39'0 0.0
2018-Jul-04 14:28N 44°09' E 028°39'0 0.0
2018-Jul-04 13:58N 44°09' E 028°39'0 0.0
2018-Jul-04 13:28N 44°09' E 028°39'0 0.0
2018-Jul-04 12:58N 44°09' E 028°39'0 0.0
2018-Jul-04 12:28N 44°09' E 028°39'0 0.0
2018-Jul-04 11:55N 44°09' E 028°39'0 0.0
2018-Jul-04 11:25N 44°09' E 028°39'0 0.0
2018-Jul-04 10:58N 44°09' E 028°39'0 0.0
2018-Jul-04 10:25N 44°09' E 028°39'0 0.0
2018-Jul-04 09:55N 44°09' E 028°39'0 0.0
2018-Jul-04 09:25N 44°09' E 028°39'0 0.0
2018-Jul-04 08:58N 44°09' E 028°39'0 0.0
2018-Jul-04 08:28N 44°09' E 028°39'0 0.0
2018-Jul-04 07:58N 44°09' E 028°39'0 0.0
2018-Jul-04 07:28N 44°09' E 028°39'0 0.0
2018-Jul-04 06:58N 44°09' E 028°39'0 0.0
2018-Jul-04 06:28N 44°09' E 028°39'0 0.0
2018-Jul-04 05:58N 44°09' E 028°39'0 0.0
2018-Jul-04 05:28N 44°09' E 028°39'0 0.0
2018-Jul-04 04:58N 44°09' E 028°39'0 0.0
2018-Jul-04 04:28N 44°09' E 028°39'0 0.0
2018-Jul-04 03:58N 44°09' E 028°39'0 0.0
2018-Jul-04 03:28N 44°09' E 028°39'0 0.0
2018-Jul-04 02:58N 44°09' E 028°39'0 0.0
2018-Jul-04 02:25N 44°09' E 028°39'0 0.0
2018-Jul-04 01:58N 44°09' E 028°39'0 0.0
2018-Jul-04 01:25N 44°09' E 028°39'0 0.0
2018-Jul-04 00:58N 44°09' E 028°39'0 0.0
2018-Jul-04 00:28N 44°09' E 028°39'0 0.0
2018-Jul-03 23:58N 44°09' E 028°39'0 0.0
2018-Jul-03 23:25N 44°09' E 028°39'0 0.0
2018-Jul-03 22:58N 44°09' E 028°39'0 0.0
2018-Jul-03 22:28N 44°09' E 028°39'0 0.0
2018-Jul-03 21:58N 44°09' E 028°39'0 0.0
2018-Jul-03 21:28N 44°09' E 028°39'0 0.0
2018-Jul-03 20:55N 44°09' E 028°39'0 0.0
2018-Jul-03 20:28N 44°09' E 028°39'0 0.0
2018-Jul-03 20:01N 44°09' E 028°39'0 0.0
2018-Jul-03 19:28N 44°09' E 028°39'0 0.0
2018-Jul-03 18:58N 44°09' E 028°39'0 0.0
2018-Jul-03 18:31N 44°09' E 028°39'0 0.0
2018-Jul-03 17:52N 44°09' E 028°39'0 0.0
2018-Jul-03 17:28N 44°09' E 028°39'0 0.0
2018-Jul-03 16:58N 44°09' E 028°39'0 0.0
2018-Jul-03 16:27N 44°09' E 028°39'0 0.0
2018-Jul-03 15:57N 44°09' E 028°39'0 0.0
2018-Jul-03 15:28N 44°09' E 028°39'0 0.0
2018-Jul-03 14:58N 44°09' E 028°39'0 0.0
2018-Jul-03 14:22N 44°09' E 028°39'0 0.0
2018-Jul-03 13:58N 44°09' E 028°39'0 0.0
2018-Jul-03 13:25N 44°09' E 028°39'0 0.0
2018-Jul-03 12:58N 44°09' E 028°39'0 0.0
2018-Jul-03 12:30N 44°09' E 028°39'1 1.9
2018-Jul-03 12:00N 44°09' E 028°40'3 6.6
2018-Jul-03 11:30N 44°06' E 028°42'2 4.0
2018-Jul-03 11:00N 44°05' E 028°44'1 1.2
2018-Jul-03 10:30N 44°04' E 028°45'2 3.7
2018-Jul-03 10:00N 44°03' E 028°46'2 4.9
2018-Jul-03 09:30N 44°01' E 028°48'3 5.6
2018-Jul-03 09:01N 43°59' E 028°51'4 7.4
2018-Jul-03 08:30N 43°55' E 028°51'4 8.3
2018-Jul-03 08:00N 43°51' E 028°51'5 9.5
2018-Jul-03 07:30N 43°46' E 028°51'510.2
2018-Jul-03 07:00N 43°41' E 028°52'38 9.9
2018-Jul-03 03:11N 43°04' E 028°59'2 9.0
2018-Jul-03 02:56N 43°01' E 028°59'9 9.0
2018-Jul-03 01:57N 42°53' E 029°02'7 9.4
2018-Jul-03 01:10N 42°46' E 029°03'2 9.3
2018-Jul-03 00:55N 42°43' E 029°04'6 9.5
2018-Jul-03 00:17N 42°37' E 029°05'3 9.5
2018-Jul-02 23:59N 42°35' E 029°06'10 9.5
2018-Jul-02 22:54N 42°24' E 029°07'4 9.9
2018-Jul-02 22:29N 42°20' E 029°08'  
2018-Jun-30 16:35N 39°46' E 024°16'110.0
2018-Jun-30 16:30N 39°46' E 024°16'  

Dump ship's entire track history